createdAt,value
2023-03-10T00:00:23.402Z,3.30
2023-03-10T00:03:15.634Z,3.50
2023-03-10T00:05:48.070Z,4.30
2023-03-10T00:08:20.423Z,2.60
2023-03-10T00:10:52.703Z,4.20
2023-03-10T00:13:24.908Z,4.70
2023-03-10T00:15:57.120Z,2.80
2023-03-10T00:18:29.463Z,3.30
2023-03-10T00:21:01.916Z,3.40
2023-03-10T00:23:37.010Z,3.80
2023-03-10T00:26:13.174Z,3.10
2023-03-10T00:28:45.504Z,3.20
2023-03-10T00:31:19.702Z,4.20
2023-03-10T00:33:52.341Z,4.10
2023-03-10T00:36:26.181Z,4.70
2023-03-10T00:39:01.118Z,5.30
2023-03-10T00:41:36.715Z,4.80
2023-03-10T00:44:10.374Z,4.60
2023-03-10T00:46:43.029Z,4.70
2023-03-10T00:49:18.267Z,4.00
2023-03-10T00:51:50.623Z,4.00
2023-03-10T00:54:22.930Z,4.30
2023-03-10T00:56:55.832Z,3.20
2023-03-10T00:59:29.558Z,4.10
2023-03-10T01:02:05.469Z,4.10
2023-03-10T01:04:37.971Z,4.40
2023-03-10T01:07:10.400Z,3.60
2023-03-10T01:09:42.716Z,3.70
2023-03-10T01:12:15.038Z,4.20
2023-03-10T01:14:47.425Z,3.80
2023-03-10T01:17:19.734Z,3.20
2023-03-10T01:19:52.130Z,6.40
2023-03-10T01:22:24.900Z,3.40
2023-03-10T01:24:57.055Z,4.30
2023-03-10T01:27:29.338Z,4.40
2023-03-10T01:30:02.135Z,4.10
2023-03-10T01:32:34.533Z,3.50
2023-03-10T01:35:07.752Z,4.50
2023-03-10T01:37:42.005Z,4.20
2023-03-10T01:40:19.131Z,4.00
2023-03-10T01:42:51.458Z,4.70
2023-03-10T01:45:58.417Z,4.10
2023-03-10T01:48:34.374Z,4.20
2023-03-10T01:51:07.170Z,4.80
2023-03-10T01:53:39.642Z,4.70
2023-03-10T01:56:11.999Z,5.80
2023-03-10T01:58:48.183Z,4.00
2023-03-10T02:01:21.969Z,5.20
2023-03-10T02:03:58.594Z,5.30
2023-03-10T02:06:30.907Z,4.10
2023-03-10T02:09:05.987Z,4.70
2023-03-10T02:11:38.845Z,4.00
2023-03-10T02:14:11.405Z,4.60
2023-03-10T02:16:43.977Z,5.50
2023-03-10T02:19:28.589Z,5.50
2023-03-10T02:22:07.834Z,4.80
2023-03-10T02:24:50.801Z,5.90
2023-03-10T02:27:25.852Z,4.80
2023-03-10T02:30:04.249Z,6.00
2023-03-10T02:32:39.762Z,3.80
2023-03-10T02:35:13.502Z,6.00
2023-03-10T02:37:46.091Z,5.80
2023-03-10T02:40:37.805Z,5.20
2023-03-10T02:43:16.622Z,6.00
2023-03-10T02:45:50.353Z,6.40
2023-03-10T02:48:29.969Z,6.80
2023-03-10T02:51:04.179Z,7.10
2023-03-10T02:53:36.632Z,7.40
2023-03-10T02:56:09.686Z,9.50
2023-03-10T02:58:42.077Z,5.70
2023-03-10T03:01:14.534Z,5.60
2023-03-10T03:03:47.205Z,8.40
2023-03-10T03:06:19.556Z,12.70
2023-03-10T03:08:51.919Z,11.80
2023-03-10T03:11:24.922Z,16.70
2023-03-10T03:13:57.373Z,18.60
2023-03-10T03:16:29.726Z,20.20
2023-03-10T03:19:02.119Z,23.70
2023-03-10T03:21:35.199Z,23.00
2023-03-10T03:24:08.310Z,21.00
2023-03-10T03:26:41.551Z,22.00
2023-03-10T03:29:13.985Z,23.30
2023-03-10T03:31:46.341Z,25.60
2023-03-10T03:34:20.814Z,27.40
2023-03-10T03:36:53.289Z,25.20
2023-03-10T03:39:25.751Z,24.10
2023-03-10T03:41:58.184Z,20.30
2023-03-10T03:44:30.504Z,21.20
2023-03-10T03:47:02.801Z,21.70
2023-03-10T03:49:35.803Z,21.20
2023-03-10T03:52:09.159Z,22.90
2023-03-10T03:54:41.474Z,23.80
2023-03-10T03:57:13.751Z,20.60
2023-03-10T03:59:46.039Z,23.10
2023-03-10T04:02:18.823Z,21.40
2023-03-10T04:04:51.152Z,20.80
2023-03-10T04:07:23.436Z,22.60
2023-03-10T04:09:55.872Z,21.90
2023-03-10T04:12:29.721Z,21.90
2023-03-10T04:15:02.049Z,20.60
2023-03-10T04:17:34.469Z,21.60
2023-03-10T04:20:08.879Z,21.70
2023-03-10T04:22:41.420Z,24.90
2023-03-10T04:25:14.396Z,20.30
2023-03-10T04:27:48.114Z,19.40
2023-03-10T04:30:21.238Z,24.30
2023-03-10T04:32:53.604Z,20.80
2023-03-10T04:35:26.014Z,24.50
2023-03-10T04:37:58.752Z,21.10
2023-03-10T04:40:31.056Z,24.20
2023-03-10T04:43:03.411Z,23.80
2023-03-10T04:45:35.779Z,23.20
2023-03-10T04:48:08.892Z,20.70
2023-03-10T04:50:41.090Z,25.30
2023-03-10T04:53:13.549Z,25.30
2023-03-10T04:55:45.729Z,23.30
2023-03-10T04:58:17.991Z,26.40
2023-03-10T05:01:02.216Z,22.10
2023-03-10T05:03:35.843Z,23.60
2023-03-10T05:06:12.394Z,26.00
2023-03-10T05:08:44.640Z,22.70
2023-03-10T05:11:17.131Z,21.60
2023-03-10T05:13:49.484Z,25.80
2023-03-10T05:16:23.962Z,21.10
2023-03-10T05:18:56.719Z,23.90
2023-03-10T05:21:28.976Z,22.70
2023-03-10T05:24:01.618Z,23.10
2023-03-10T05:26:35.022Z,23.70
2023-03-10T05:29:08.190Z,21.90
2023-03-10T05:31:40.889Z,24.50
2023-03-10T05:34:14.203Z,19.30
2023-03-10T05:36:46.645Z,21.90
2023-03-10T05:39:18.964Z,21.90
2023-03-10T05:41:51.281Z,23.30
2023-03-10T05:44:23.558Z,19.60
2023-03-10T05:46:56.397Z,23.80
2023-03-10T05:49:28.758Z,23.80
2023-03-10T05:52:01.286Z,23.10
2023-03-10T05:54:33.804Z,23.40
2023-03-10T05:57:06.483Z,23.00
2023-03-10T05:59:38.852Z,22.80
2023-03-10T06:02:11.225Z,20.60
2023-03-10T06:04:43.613Z,21.20
2023-03-10T06:07:15.934Z,17.30
2023-03-10T06:09:48.387Z,19.00
2023-03-10T06:12:20.848Z,16.40
2023-03-10T06:14:53.117Z,19.40
2023-03-10T06:17:25.393Z,18.80
2023-03-10T06:19:57.667Z,17.70
2023-03-10T06:22:31.392Z,17.50
2023-03-10T06:25:04.952Z,17.00
2023-03-10T06:27:37.306Z,17.70
2023-03-10T06:30:11.795Z,17.40
2023-03-10T06:32:44.265Z,17.20
2023-03-10T06:35:17.957Z,19.40
2023-03-10T06:37:50.258Z,19.70
2023-03-10T06:40:23.215Z,19.60
2023-03-10T06:42:55.613Z,16.50
2023-03-10T06:45:28.035Z,18.10
2023-03-10T06:48:00.807Z,17.20
2023-03-10T06:50:33.090Z,18.30
2023-03-10T06:53:05.396Z,20.60
2023-03-10T06:55:38.137Z,17.40
2023-03-10T06:58:10.555Z,18.20
2023-03-10T07:00:43.284Z,18.50
2023-03-10T07:03:15.652Z,17.00
2023-03-10T07:05:48.031Z,16.90
2023-03-10T07:08:20.318Z,17.80
2023-03-10T07:10:52.705Z,16.80
2023-03-10T07:13:25.043Z,15.10
2023-03-10T07:15:57.964Z,16.30
2023-03-10T07:18:30.236Z,17.20
2023-03-10T07:21:02.533Z,14.90
2023-03-10T07:23:35.107Z,16.70
2023-03-10T07:26:09.350Z,18.70
2023-03-10T07:28:42.035Z,16.00
2023-03-10T07:31:19.230Z,13.90
2023-03-10T07:33:51.475Z,14.60
2023-03-10T07:36:24.413Z,14.20
2023-03-10T07:38:56.833Z,14.70
2023-03-10T07:41:29.154Z,13.60
2023-03-10T07:44:01.474Z,15.80
2023-03-10T07:46:33.878Z,15.10
2023-03-10T07:49:06.818Z,14.60
2023-03-10T07:51:39.324Z,16.80
2023-03-10T07:54:13.228Z,17.90
2023-03-10T07:56:45.448Z,16.40
2023-03-10T07:59:17.675Z,18.00
2023-03-10T08:01:50.449Z,16.20
2023-03-10T08:04:22.862Z,18.20
2023-03-10T08:06:55.352Z,16.60
2023-03-10T08:09:28.502Z,14.10
2023-03-10T08:12:01.843Z,15.50
2023-03-10T08:14:34.957Z,16.30
2023-03-10T08:17:07.276Z,16.20
2023-03-10T08:19:40.827Z,16.60
2023-03-10T08:22:13.162Z,15.10
2023-03-10T08:24:45.431Z,15.30
2023-03-10T08:27:17.738Z,18.40
2023-03-10T08:29:50.070Z,15.20
2023-03-10T08:32:22.473Z,17.30
2023-03-10T08:34:54.726Z,15.50
2023-03-10T08:37:27.160Z,15.60
2023-03-10T08:40:00.949Z,15.30
2023-03-10T08:42:36.599Z,16.80
2023-03-10T08:45:10.080Z,14.70
2023-03-10T08:47:42.485Z,14.40
2023-03-10T08:50:15.819Z,14.40
2023-03-10T08:52:48.260Z,13.70
2023-03-10T08:55:20.605Z,17.10
2023-03-10T08:57:52.930Z,14.80
2023-03-10T09:00:26.332Z,18.80
2023-03-10T09:02:58.565Z,14.40
2023-03-10T09:05:31.194Z,13.10
2023-03-10T09:08:03.535Z,15.90
2023-03-10T09:10:36.184Z,16.00
2023-03-10T09:13:14.170Z,13.60
2023-03-10T09:15:46.793Z,13.20
2023-03-10T09:18:19.565Z,14.10
2023-03-10T09:20:51.894Z,14.90
2023-03-10T09:23:24.163Z,12.70
2023-03-10T09:25:56.389Z,15.90
2023-03-10T09:28:28.888Z,14.50
2023-03-10T09:31:01.288Z,13.90
2023-03-10T09:33:35.160Z,12.20
2023-03-10T09:36:08.806Z,11.20
2023-03-10T09:38:42.207Z,9.70
2023-03-10T09:41:37.007Z,10.00
2023-03-10T09:44:23.943Z,12.60
2023-03-10T09:47:09.513Z,13.10
2023-03-10T09:49:45.217Z,14.20
2023-03-10T09:55:00.162Z,14.50
2023-03-10T09:57:32.721Z,13.30
2023-03-10T10:00:09.179Z,16.90
2023-03-10T10:02:46.970Z,12.30
2023-03-10T10:05:25.239Z,13.40
2023-03-10T10:07:58.650Z,13.50
2023-03-10T10:10:34.646Z,11.80
2023-03-10T10:13:15.074Z,10.10
2023-03-10T10:16:07.377Z,8.80
2023-03-10T10:18:54.988Z,8.70
2023-03-10T10:21:41.727Z,10.10
2023-03-10T10:24:15.122Z,9.90
2023-03-10T10:26:47.492Z,11.90
2023-03-10T10:29:23.806Z,10.90
2023-03-10T10:32:11.675Z,11.40
2023-03-10T10:34:46.129Z,8.40
2023-03-10T10:37:35.352Z,8.90
2023-03-10T10:40:26.873Z,7.00
2023-03-10T10:43:01.272Z,7.40
2023-03-10T10:45:37.297Z,8.20
2023-03-10T10:48:29.467Z,6.80
2023-03-10T10:51:02.379Z,6.40
2023-03-10T10:53:36.184Z,7.20
2023-03-10T10:56:15.215Z,6.30
2023-03-10T10:59:01.656Z,3.70
2023-03-10T11:01:50.774Z,3.40
2023-03-10T11:04:24.068Z,4.20
2023-03-10T11:07:10.032Z,5.30
2023-03-10T11:09:42.633Z,5.30
2023-03-10T11:12:22.161Z,6.70
2023-03-10T11:15:07.641Z,4.50
2023-03-10T11:17:47.331Z,5.50
2023-03-10T11:20:29.493Z,3.50
2023-03-10T11:23:12.156Z,4.50
2023-03-10T11:25:51.741Z,4.70
2023-03-10T11:28:39.687Z,3.10
2023-03-10T11:31:27.563Z,3.40
2023-03-10T11:34:14.827Z,3.20
2023-03-10T11:36:56.630Z,2.40
2023-03-10T11:39:40.350Z,2.60
2023-03-10T11:42:24.581Z,2.30
2023-03-10T11:45:14.154Z,2.10
2023-03-10T11:47:57.408Z,2.60
2023-03-10T11:50:39.267Z,2.30
2023-03-10T11:53:17.789Z,2.90
2023-03-10T11:55:52.511Z,1.90
2023-03-10T11:58:29.286Z,3.20
2023-03-10T12:01:02.229Z,3.10
2023-03-10T12:03:48.598Z,3.40
2023-03-10T12:06:26.916Z,2.40
2023-03-10T12:09:02.999Z,2.80
2023-03-10T12:11:36.787Z,3.00
2023-03-10T12:14:13.012Z,2.50
2023-03-10T12:16:46.284Z,3.20
2023-03-10T12:19:18.658Z,3.30
2023-03-10T12:22:24.989Z,2.80
2023-03-10T12:24:57.310Z,2.60
2023-03-10T12:27:29.645Z,1.70
2023-03-10T12:30:01.974Z,2.10
2023-03-10T12:32:49.153Z,1.30
2023-03-10T12:35:47.726Z,0.60
2023-03-10T12:38:32.074Z,2.10
2023-03-10T12:41:04.633Z,1.20
2023-03-10T12:43:57.883Z,1.50
2023-03-10T12:46:48.793Z,0.70
2023-03-10T12:49:37.627Z,1.60
2023-03-10T12:52:22.594Z,0.80
2023-03-10T12:55:19.987Z,1.20
2023-03-10T12:58:01.743Z,1.10
2023-03-10T13:00:45.935Z,1.70
2023-03-10T13:03:27.667Z,1.20
2023-03-10T13:06:06.436Z,1.20
2023-03-10T13:08:45.693Z,1.30
2023-03-10T13:11:28.686Z,0.90
2023-03-10T13:14:04.142Z,2.10
2023-03-10T13:16:36.765Z,1.10
2023-03-10T13:19:20.187Z,1.30
2023-03-10T13:21:53.314Z,1.60
2023-03-10T13:24:28.672Z,1.40
2023-03-10T13:27:12.809Z,2.20
2023-03-10T13:29:57.609Z,1.40
2023-03-10T13:32:31.366Z,1.80
2023-03-10T13:35:17.846Z,1.60
2023-03-10T13:38:06.555Z,1.80
2023-03-10T13:40:40.945Z,1.10
2023-03-10T13:43:33.839Z,0.90
2023-03-10T13:46:10.122Z,1.60
2023-03-10T13:48:44.758Z,1.10
2023-03-10T13:51:23.105Z,1.90
2023-03-10T13:53:58.671Z,1.00
2023-03-10T13:59:07.945Z,1.00
2023-03-10T14:01:48.007Z,2.30
2023-03-10T14:04:38.914Z,0.90
2023-03-10T14:07:13.156Z,0.80
2023-03-10T14:09:45.646Z,1.70
2023-03-10T14:12:35.757Z,1.10
2023-03-10T14:15:23.036Z,1.70
2023-03-10T14:18:17.395Z,1.00
2023-03-10T14:20:50.354Z,3.40
2023-03-10T14:23:38.850Z,1.80
2023-03-10T14:26:18.146Z,3.20
2023-03-10T14:28:50.310Z,2.10
2023-03-10T14:31:25.303Z,1.40
2023-03-10T14:33:57.665Z,0.90
2023-03-10T14:36:29.972Z,1.30
2023-03-10T14:39:02.297Z,0.90
2023-03-10T14:41:34.955Z,1.20
2023-03-10T14:44:07.281Z,1.00
2023-03-10T14:46:39.807Z,1.40
2023-03-10T14:49:17.658Z,1.10
2023-03-10T14:51:50.114Z,1.10
2023-03-10T14:54:24.307Z,2.30
2023-03-10T14:57:00.021Z,1.60
2023-03-10T15:02:08.417Z,1.40
2023-03-10T15:04:40.865Z,1.10
2023-03-10T15:07:15.371Z,1.00
2023-03-10T15:09:50.827Z,1.30
2023-03-10T15:12:27.031Z,1.30
2023-03-10T15:14:59.965Z,0.80
2023-03-10T15:17:32.485Z,1.10
2023-03-10T15:20:08.497Z,1.10
2023-03-10T15:22:40.777Z,0.70
2023-03-10T15:25:14.486Z,1.50
2023-03-10T15:27:48.441Z,0.60
2023-03-10T15:30:24.239Z,0.50
2023-03-10T15:32:56.630Z,2.10
2023-03-10T15:35:29.504Z,1.50
2023-03-10T15:38:01.890Z,0.90
2023-03-10T15:40:36.035Z,1.60
2023-03-10T15:43:08.864Z,1.60
2023-03-10T15:45:46.753Z,2.70
2023-03-10T15:48:19.352Z,3.00
2023-03-10T15:50:51.724Z,4.20
2023-03-10T15:53:24.002Z,3.70
2023-03-10T15:55:56.397Z,4.00
2023-03-10T15:58:28.688Z,3.00
2023-03-10T16:01:00.959Z,2.10
2023-03-10T16:03:35.268Z,2.70
2023-03-10T16:06:09.658Z,1.70
2023-03-10T16:08:41.949Z,2.20
2023-03-10T16:11:21.744Z,1.70
2023-03-10T16:13:54.070Z,1.30
2023-03-10T16:16:26.633Z,0.90
2023-03-10T16:18:59.202Z,1.30
2023-03-10T16:21:31.448Z,1.40
2023-03-10T16:24:03.901Z,3.30
2023-03-10T16:26:36.742Z,2.50
2023-03-10T16:29:09.048Z,2.50
2023-03-10T16:31:42.957Z,2.70
2023-03-10T16:34:15.331Z,2.50
2023-03-10T16:36:47.689Z,3.70
2023-03-10T16:39:20.001Z,5.10
2023-03-10T16:41:52.637Z,4.10
2023-03-10T16:44:24.977Z,4.70
2023-03-10T16:46:57.328Z,4.80
2023-03-10T16:49:32.136Z,4.70
2023-03-10T16:52:08.002Z,8.10
2023-03-10T16:54:40.422Z,4.00
2023-03-10T16:57:12.715Z,5.50
2023-03-10T16:59:46.514Z,4.50
2023-03-10T17:02:19.250Z,5.30
2023-03-10T17:04:51.592Z,5.10
2023-03-10T17:07:24.030Z,5.30
2023-03-10T17:09:56.326Z,5.40
2023-03-10T17:12:28.662Z,4.20
2023-03-10T17:15:00.980Z,3.10
2023-03-10T17:17:33.868Z,1.60
2023-03-10T17:20:07.965Z,2.50
2023-03-10T17:22:40.245Z,1.40
2023-03-10T17:25:15.998Z,2.30
2023-03-10T17:30:21.037Z,1.70
2023-03-10T17:32:53.271Z,2.40
2023-03-10T17:35:25.650Z,4.20
2023-03-10T17:37:57.844Z,4.40
2023-03-10T17:40:30.286Z,3.40
2023-03-10T17:43:13.136Z,5.20
2023-03-10T17:46:01.347Z,6.50
2023-03-10T17:48:34.708Z,4.50
2023-03-10T17:51:07.276Z,5.20
2023-03-10T17:53:39.563Z,4.30
2023-03-10T17:56:12.190Z,5.00
2023-03-10T17:58:44.676Z,5.40
2023-03-10T18:01:18.493Z,6.40
2023-03-10T18:03:50.820Z,20.40
2023-03-10T18:06:25.048Z,23.90
2023-03-10T18:08:58.345Z,24.90
2023-03-10T18:11:31.742Z,11.50
2023-03-10T18:14:04.326Z,8.50
2023-03-10T18:16:39.341Z,9.80
2023-03-10T18:19:12.017Z,8.70
2023-03-10T18:21:44.450Z,7.10
2023-03-10T18:24:17.090Z,8.50
2023-03-10T18:26:49.365Z,7.30
2023-03-10T18:29:21.574Z,7.40
2023-03-10T18:31:54.003Z,7.50
2023-03-10T18:34:26.214Z,7.60
2023-03-10T18:36:58.492Z,12.70
2023-03-10T18:39:30.701Z,9.00
2023-03-10T18:42:03.331Z,9.10
2023-03-10T18:44:35.646Z,7.90
2023-03-10T18:47:07.928Z,7.90
2023-03-10T18:49:40.250Z,7.50
2023-03-10T18:52:16.100Z,8.90
2023-03-10T18:54:49.744Z,7.70
2023-03-10T18:57:22.057Z,6.00
2023-03-10T18:59:54.319Z,6.40
2023-03-10T19:02:26.706Z,5.90
2023-03-10T19:05:00.934Z,5.60
2023-03-10T19:07:33.927Z,5.70
2023-03-10T19:10:06.752Z,5.10
2023-03-10T19:12:39.492Z,5.30
2023-03-10T19:15:14.756Z,5.20
2023-03-10T19:17:47.129Z,4.40
2023-03-10T19:20:20.101Z,16.80
2023-03-10T19:22:53.293Z,5.10
2023-03-10T19:25:25.626Z,4.20
2023-03-10T19:27:57.897Z,4.90
2023-03-10T19:30:31.832Z,4.10
2023-03-10T19:33:04.100Z,5.50
2023-03-10T19:35:36.544Z,5.90
2023-03-10T19:38:09.005Z,5.40
2023-03-10T19:40:41.337Z,4.90
2023-03-10T19:43:13.634Z,4.90
2023-03-10T19:45:45.946Z,5.80
2023-03-10T19:48:18.235Z,4.60
2023-03-10T19:50:55.722Z,4.40
2023-03-10T19:53:32.850Z,5.50
2023-03-10T19:56:08.740Z,5.60
2023-03-10T19:58:41.220Z,5.50
2023-03-10T20:01:17.343Z,3.90
2023-03-10T20:03:49.737Z,4.50
2023-03-10T20:06:22.495Z,5.60
2023-03-10T20:08:57.251Z,3.90
2023-03-10T20:11:29.502Z,5.50
2023-03-10T20:14:01.851Z,4.50
2023-03-10T20:16:35.350Z,5.40
2023-03-10T20:19:07.658Z,3.70
2023-03-10T20:21:41.675Z,3.30
2023-03-10T20:24:14.065Z,3.00
2023-03-10T20:26:46.378Z,3.50
2023-03-10T20:29:19.247Z,3.60
2023-03-10T20:31:51.523Z,4.20
2023-03-10T20:34:25.898Z,3.00
2023-03-10T20:36:58.335Z,3.60
2023-03-10T20:39:30.688Z,4.40
2023-03-10T20:42:02.903Z,6.00
2023-03-10T20:44:37.836Z,5.20
2023-03-10T20:47:10.212Z,5.70
2023-03-10T20:49:42.399Z,6.00
2023-03-10T20:52:15.143Z,5.40
2023-03-10T20:54:47.406Z,5.80
2023-03-10T20:57:19.760Z,5.50
2023-03-10T20:59:52.096Z,5.80
2023-03-10T21:02:24.589Z,5.80
2023-03-10T21:04:58.006Z,6.80
2023-03-10T21:07:30.268Z,5.50
2023-03-10T21:10:04.230Z,7.00
2023-03-10T21:12:36.828Z,6.40
2023-03-10T21:15:12.089Z,5.60
2023-03-10T21:17:44.483Z,6.70
2023-03-10T21:20:19.720Z,5.40
2023-03-10T21:22:52.202Z,6.00
2023-03-10T21:25:26.700Z,5.60
2023-03-10T21:28:00.062Z,5.80
2023-03-10T21:30:34.274Z,6.40
2023-03-10T21:33:06.746Z,5.40
2023-03-10T21:35:40.649Z,7.00
2023-03-10T21:38:12.894Z,11.20
2023-03-10T21:40:45.132Z,10.70
2023-03-10T21:43:17.320Z,7.70
2023-03-10T21:45:49.733Z,6.40
2023-03-10T21:48:22.060Z,7.20
2023-03-10T21:50:54.264Z,6.60
2023-03-10T21:53:26.895Z,7.10
2023-03-10T21:56:00.883Z,8.70
2023-03-10T21:58:35.117Z,6.40
2023-03-10T22:01:08.384Z,7.30
2023-03-10T22:03:41.237Z,6.90
2023-03-10T22:06:13.547Z,6.50
2023-03-10T22:08:45.770Z,6.20
2023-03-10T22:11:18.192Z,6.40
2023-03-10T22:13:51.422Z,6.50
2023-03-10T22:16:24.145Z,7.50
2023-03-10T22:18:56.612Z,7.00
2023-03-10T22:21:28.967Z,6.50
2023-03-10T22:24:01.204Z,8.00
2023-03-10T22:26:33.437Z,9.20
2023-03-10T22:29:05.795Z,8.70
2023-03-10T22:31:38.287Z,7.80
2023-03-10T22:34:10.631Z,8.80
2023-03-10T22:36:42.860Z,6.80
2023-03-10T22:39:18.292Z,6.00
2023-03-10T22:41:50.734Z,7.20
2023-03-10T22:44:23.096Z,7.20
2023-03-10T22:46:55.548Z,7.70
2023-03-10T22:49:27.798Z,8.10
2023-03-10T22:52:00.062Z,7.50
2023-03-10T22:54:32.493Z,8.60
2023-03-10T22:57:04.749Z,8.00
2023-03-10T22:59:36.953Z,10.40
2023-03-10T23:02:10.855Z,7.80
2023-03-10T23:04:44.639Z,8.00
2023-03-10T23:07:16.902Z,8.40
2023-03-10T23:09:49.215Z,8.50
2023-03-10T23:12:21.872Z,8.70
2023-03-10T23:14:54.241Z,9.40
2023-03-10T23:17:26.637Z,10.40
2023-03-10T23:19:59.132Z,10.50
2023-03-10T23:22:31.483Z,9.60
2023-03-10T23:25:04.434Z,9.20
2023-03-10T23:27:36.771Z,9.70
2023-03-10T23:30:11.806Z,9.80
2023-03-10T23:32:44.322Z,12.40
2023-03-10T23:35:18.020Z,7.70
2023-03-10T23:37:50.368Z,9.00
2023-03-10T23:40:27.189Z,10.50
2023-03-10T23:43:01.516Z,11.50
2023-03-10T23:45:36.635Z,10.50
2023-03-10T23:48:12.917Z,9.10
2023-03-10T23:50:47.384Z,8.60
2023-03-10T23:53:21.333Z,8.50
2023-03-10T23:55:56.962Z,10.80
2023-03-10T23:58:29.586Z,11.30
